Time;durP1;ratioP1;P1;durP2;ratioP2;P2;SDS_P1;SDS_P2;PMS_P1;PMS_P2;Temp;Humidity;BMP_temperature;BMP_pressure;BME280_temperature;BME280_humidity;BME280_pressure;Samples;Min_cycle;Max_cycle;Signal;HPM_P1;HPM_P2
2021/09/09 00:00:33;;;;;;;11.07;3.97;;;;;;;;;;5144876;27;20102;-94
2021/09/09 00:02:59;;;;;;;5.50;3.30;;;;;;;;;;5143790;27;20027;-94
2021/09/09 00:05:26;;;;;;;10.60;4.60;;;;;;;;;;5141624;27;20020;-92
2021/09/09 00:07:52;;;;;;;8.73;3.88;;;;;;;;;;5121932;27;20031;-93
2021/09/09 00:10:19;;;;;;;8.40;3.80;;;;;;;;;;5121732;27;20023;-92
2021/09/09 00:12:46;;;;;;;8.95;4.15;;;;;;;;;;5140207;27;20106;-94
2021/09/09 00:15:12;;;;;;;11.02;4.00;;;;;;;;;;5139910;27;20428;-94
2021/09/09 00:17:39;;;;;;;7.97;4.32;;;;;;;;;;5121692;27;20035;-94
2021/09/09 00:20:05;;;;;;;9.93;4.40;;;;;;;;;;5121777;27;20027;-96
2021/09/09 00:22:32;;;;;;;10.98;4.57;;;;;;;;;;5121616;27;20333;-91
2021/09/09 00:24:58;;;;;;;8.82;4.38;;;;;;;;;;5139990;27;20023;-92
2021/09/09 00:27:24;;;;;;;11.95;4.20;;;;;;;;;;5139686;27;20068;-91
2021/09/09 00:29:50;;;;;;;15.40;5.20;;;;;;;;;;5139403;27;20093;-91
2021/09/09 00:32:16;;;;;;;7.82;4.47;;;;;;;;;;5121763;27;20066;-91
2021/09/09 00:34:43;;;;;;;13.00;4.60;;;;;;;;;;5140515;27;20019;-95
2021/09/09 00:37:09;;;;;;;14.32;5.68;;;;;;;;;;5140224;27;20056;-92
2021/09/09 00:39:35;;;;;;;7.18;4.68;;;;;;;;;;5120848;27;20058;-93
2021/09/09 00:42:01;;;;;;;10.32;5.03;;;;;;;;;;5121531;27;20063;-94
2021/09/09 00:44:28;;;;;;;8.60;4.53;;;;;;;;;;5139252;27;20031;-93
2021/09/09 00:47:12;;;;;;;6.88;4.72;;;;;;;;;;5121403;27;20063;-93
2021/09/09 00:49:41;;;;;;;6.70;4.72;;;;;;;;;;5121034;27;20067;-94
2021/09/09 00:52:07;;;;;;;13.27;5.20;;;;;;;;;;5121171;27;20023;-93
2021/09/09 00:54:33;;;;;;;12.55;5.20;;;;;;;;;;5121099;27;20042;-91
2021/09/09 00:57:02;;;;;;;9.38;4.70;;;;;;;;;;5139256;27;20019;-92
2021/09/09 00:59:28;;;;;;;15.20;5.30;;;;;;;;;;5120814;27;20043;-91
2021/09/09 01:01:54;;;;;;;7.85;5.00;;;;;;;;;;5139058;27;20405;-92
2021/09/09 01:04:20;;;;;;;7.65;5.40;;;;;;;;;;5139132;27;20019;-92
2021/09/09 01:06:46;;;;;;;15.02;6.00;;;;;;;;;;5120658;27;20030;-91
2021/09/09 01:09:12;;;;;;;8.52;5.00;;;;;;;;;;5120732;27;20027;-92
2021/09/09 01:11:39;;;;;;;11.68;5.88;;;;;;;;;;5139019;27;20044;-90
2021/09/09 01:14:06;;;;;;;9.88;5.68;;;;;;;;;;5139094;27;20026;-90
2021/09/09 01:16:32;;;;;;;9.30;5.55;;;;;;;;;;5138860;27;20409;-89
2021/09/09 01:18:58;;;;;;;9.50;5.55;;;;;;;;;;5120707;27;20141;-90
2021/09/09 01:21:24;;;;;;;8.90;5.80;;;;;;;;;;5138824;27;20031;-89
2021/09/09 01:23:54;;;;;;;11.02;5.20;;;;;;;;;;5120849;27;20487;-94
2021/09/09 01:26:20;;;;;;;13.27;5.57;;;;;;;;;;5139114;27;20038;-94
2021/09/09 01:28:46;;;;;;;14.75;5.88;;;;;;;;;;5138468;27;20054;-93
2021/09/09 01:31:15;;;;;;;8.55;5.88;;;;;;;;;;5138766;27;20019;-94
2021/09/09 01:33:41;;;;;;;8.73;5.25;;;;;;;;;;5138563;27;20027;-93
2021/09/09 01:36:07;;;;;;;14.90;5.70;;;;;;;;;;5138481;27;20423;-93
2021/09/09 01:38:34;;;;;;;9.57;5.28;;;;;;;;;;5120562;28;20393;-92
2021/09/09 01:41:00;;;;;;;9.70;5.78;;;;;;;;;;5138698;27;20397;-89
2021/09/09 01:43:26;;;;;;;11.88;5.60;;;;;;;;;;5138624;27;20034;-92
2021/09/09 01:45:52;;;;;;;11.95;5.65;;;;;;;;;;5138595;28;20024;-92
2021/09/09 01:48:18;;;;;;;9.50;4.88;;;;;;;;;;5138452;27;20132;-92
2021/09/09 01:50:44;;;;;;;13.57;5.18;;;;;;;;;;5140325;27;20416;-93
2021/09/09 01:53:10;;;;;;;13.95;5.60;;;;;;;;;;5142502;27;20484;-92
2021/09/09 01:55:36;;;;;;;9.63;5.68;;;;;;;;;;5124519;27;20019;-94
2021/09/09 01:58:02;;;;;;;9.27;5.05;;;;;;;;;;5124639;27;20023;-92
2021/09/09 02:00:28;;;;;;;14.30;5.22;;;;;;;;;;5142740;27;20015;-93
2021/09/09 02:02:54;;;;;;;12.50;5.30;;;;;;;;;;5142399;27;20106;-93
2021/09/09 02:05:20;;;;;;;11.20;5.30;;;;;;;;;;5142367;27;20019;-94
2021/09/09 02:07:46;;;;;;;11.68;5.50;;;;;;;;;;5142376;27;20026;-92
2021/09/09 02:10:19;;;;;;;8.38;4.97;;;;;;;;;;5142522;27;20106;-93
2021/09/09 02:12:46;;;;;;;9.38;5.53;;;;;;;;;;5124285;27;20019;-94
2021/09/09 02:15:12;;;;;;;12.20;4.95;;;;;;;;;;5124278;27;20030;-93
2021/09/09 02:17:38;;;;;;;9.38;4.82;;;;;;;;;;5124292;27;20026;-93
2021/09/09 02:20:05;;;;;;;6.55;4.85;;;;;;;;;;5142067;27;20417;-93
2021/09/09 02:22:31;;;;;;;8.70;5.07;;;;;;;;;;5144918;27;20088;-93
2021/09/09 02:24:58;;;;;;;15.38;5.28;;;;;;;;;;5142250;27;20027;-92
2021/09/09 02:27:24;;;;;;;9.85;4.95;;;;;;;;;;5141979;27;20023;-93
2021/09/09 02:29:50;;;;;;;10.23;5.05;;;;;;;;;;5141710;27;20058;-94
2021/09/09 02:32:16;;;;;;;9.60;4.47;;;;;;;;;;5146800;27;20019;-96
2021/09/09 02:34:42;;;;;;;8.15;4.93;;;;;;;;;;5130222;27;20023;-96
2021/09/09 02:37:08;;;;;;;9.82;5.63;;;;;;;;;;5152064;27;20072;-95
2021/09/09 02:39:36;;;;;;;8.48;4.38;;;;;;;;;;5151700;27;20023;-96
2021/09/09 02:42:02;;;;;;;6.80;4.43;;;;;;;;;;5150367;27;20027;-96
2021/09/09 02:44:29;;;;;;;8.63;4.53;;;;;;;;;;5149655;27;20069;-96
2021/09/09 02:46:55;;;;;;;7.88;4.80;;;;;;;;;;5127350;27;20034;-96
2021/09/09 02:49:21;;;;;;;9.43;4.80;;;;;;;;;;5124051;27;20362;-91
2021/09/09 02:51:47;;;;;;;10.10;4.90;;;;;;;;;;5141874;27;20324;-91
2021/09/09 02:54:13;;;;;;;10.00;4.38;;;;;;;;;;5141666;27;20019;-91
2021/09/09 02:56:39;;;;;;;11.25;4.25;;;;;;;;;;5141575;27;20024;-92
2021/09/09 02:59:06;;;;;;;7.25;4.35;;;;;;;;;;5141302;27;20035;-91
2021/09/09 03:01:32;;;;;;;9.45;4.78;;;;;;;;;;5140847;27;20031;-91
2021/09/09 03:03:58;;;;;;;9.98;4.60;;;;;;;;;;5141265;27;20031;-92
2021/09/09 03:06:24;;;;;;;7.88;4.43;;;;;;;;;;5141137;27;20027;-91
2021/09/09 03:08:50;;;;;;;9.25;4.13;;;;;;;;;;5141213;27;20027;-92
2021/09/09 03:11:16;;;;;;;5.63;4.10;;;;;;;;;;5122982;27;20477;-92
2021/09/09 03:13:42;;;;;;;11.13;4.85;;;;;;;;;;5141074;27;20424;-93
2021/09/09 03:16:08;;;;;;;9.88;5.38;;;;;;;;;;5140683;27;20401;-92
2021/09/09 03:18:34;;;;;;;10.07;4.47;;;;;;;;;;5123082;27;20397;-91
2021/09/09 03:21:00;;;;;;;9.00;4.82;;;;;;;;;;5123029;27;20031;-93
2021/09/09 03:23:26;;;;;;;13.00;4.82;;;;;;;;;;5141181;27;20061;-93
2021/09/09 03:25:52;;;;;;;7.95;5.32;;;;;;;;;;5141163;27;20047;-93
2021/09/09 03:28:18;;;;;;;11.80;5.82;;;;;;;;;;5146815;27;20051;-95
2021/09/09 03:30:44;;;;;;;12.63;5.13;;;;;;;;;;5142754;27;20305;-95
2021/09/09 03:33:10;;;;;;;7.85;5.22;;;;;;;;;;5122726;27;20049;-93
2021/09/09 03:35:36;;;;;;;14.05;5.65;;;;;;;;;;5140637;27;20023;-89
2021/09/09 03:38:03;;;;;;;9.82;5.28;;;;;;;;;;5140744;27;20047;-93
2021/09/09 03:40:29;;;;;;;16.13;5.85;;;;;;;;;;5141229;27;20039;-93
2021/09/09 03:42:55;;;;;;;7.55;5.03;;;;;;;;;;5123035;27;20059;-93
2021/09/09 03:45:21;;;;;;;13.85;5.28;;;;;;;;;;5122632;27;20024;-91
2021/09/09 03:47:47;;;;;;;11.85;5.30;;;;;;;;;;5140377;27;20026;-92
2021/09/09 03:50:13;;;;;;;9.38;4.93;;;;;;;;;;5140380;27;20397;-94
2021/09/09 03:52:39;;;;;;;13.27;5.07;;;;;;;;;;5122269;27;20023;-93
2021/09/09 03:55:06;;;;;;;9.23;4.70;;;;;;;;;;5122213;27;20027;-93
2021/09/09 03:57:32;;;;;;;8.10;4.63;;;;;;;;;;5139901;27;20461;-90
2021/09/09 03:59:58;;;;;;;7.32;4.47;;;;;;;;;;5140519;27;20059;-91
2021/09/09 04:02:24;;;;;;;8.23;4.40;;;;;;;;;;5140362;27;20030;-90
2021/09/09 04:04:50;;;;;;;9.52;4.70;;;;;;;;;;5141251;27;20041;-93
2021/09/09 04:07:16;;;;;;;8.27;5.20;;;;;;;;;;5139974;27;20023;-94
2021/09/09 04:09:42;;;;;;;11.23;4.93;;;;;;;;;;5121874;27;20060;-94
2021/09/09 04:12:09;;;;;;;10.70;5.68;;;;;;;;;;5140739;27;20026;-96
2021/09/09 04:14:35;;;;;;;10.90;5.43;;;;;;;;;;5145550;27;20023;-95
2021/09/09 04:17:01;;;;;;;12.18;5.30;;;;;;;;;;5142358;27;20023;-96
2021/09/09 04:19:30;;;;;;;13.75;5.55;;;;;;;;;;5124088;27;20031;-95
2021/09/09 04:21:56;;;;;;;17.02;6.45;;;;;;;;;;5127989;27;20023;-96
2021/09/09 04:24:23;;;;;;;12.30;5.82;;;;;;;;;;5142451;27;20072;-93
2021/09/09 04:26:49;;;;;;;9.63;5.93;;;;;;;;;;5139744;27;20023;-92
2021/09/09 04:29:15;;;;;;;12.35;6.35;;;;;;;;;;5139428;27;20397;-91
2021/09/09 04:31:42;;;;;;;11.75;6.80;;;;;;;;;;5139705;27;20071;-92
2021/09/09 04:34:08;;;;;;;17.10;7.20;;;;;;;;;;5121536;27;20034;-92
2021/09/09 04:36:34;;;;;;;14.07;7.43;;;;;;;;;;5121486;27;20064;-92
2021/09/09 04:39:00;;;;;;;12.70;7.10;;;;;;;;;;5121454;27;20050;-94
2021/09/09 04:41:26;;;;;;;18.00;6.97;;;;;;;;;;5139517;27;20030;-95
2021/09/09 04:43:52;;;;;;;14.38;7.45;;;;;;;;;;5121368;27;20419;-94
2021/09/09 04:46:18;;;;;;;12.80;6.88;;;;;;;;;;5121329;27;20119;-92
2021/09/09 04:48:44;;;;;;;14.52;7.65;;;;;;;;;;5139269;27;20019;-92
2021/09/09 04:51:11;;;;;;;15.43;7.57;;;;;;;;;;5121416;27;20027;-91
2021/09/09 04:53:37;;;;;;;13.88;7.25;;;;;;;;;;5121352;27;20064;-91
2021/09/09 04:56:03;;;;;;;13.98;7.47;;;;;;;;;;5139173;27;20019;-93
2021/09/09 04:58:29;;;;;;;14.13;7.65;;;;;;;;;;5120823;27;20043;-93
2021/09/09 05:00:56;;;;;;;20.85;7.80;;;;;;;;;;5139168;27;20023;-93
2021/09/09 05:03:22;;;;;;;14.25;8.02;;;;;;;;;;5121204;27;20157;-91
2021/09/09 05:05:48;;;;;;;14.48;7.13;;;;;;;;;;5120842;27;20039;-90
2021/09/09 05:08:14;;;;;;;16.33;7.60;;;;;;;;;;5138912;27;20031;-92
2021/09/09 05:10:41;;;;;;;15.23;7.15;;;;;;;;;;5138859;27;20432;-92
2021/09/09 05:13:07;;;;;;;16.98;7.95;;;;;;;;;;5138892;27;20316;-90
2021/09/09 05:15:33;;;;;;;17.98;7.85;;;;;;;;;;5139569;27;20019;-91
2021/09/09 05:17:59;;;;;;;15.38;7.57;;;;;;;;;;5120817;28;20068;-91
2021/09/09 05:20:25;;;;;;;15.50;8.27;;;;;;;;;;5140410;27;20027;-93
2021/09/09 05:22:51;;;;;;;19.80;8.43;;;;;;;;;;5133692;27;20464;-93
2021/09/09 05:25:17;;;;;;;20.38;8.82;;;;;;;;;;5120670;27;20031;-93
2021/09/09 05:27:44;;;;;;;19.70;8.38;;;;;;;;;;5120553;28;20027;-94
2021/09/09 05:30:10;;;;;;;20.55;8.35;;;;;;;;;;5138800;27;20535;-94
2021/09/09 05:32:37;;;;;;;21.77;7.50;;;;;;;;;;5138696;27;20412;-93
2021/09/09 05:35:03;;;;;;;17.38;7.50;;;;;;;;;;5138710;28;20065;-93
2021/09/09 05:37:29;;;;;;;12.98;7.35;;;;;;;;;;5138185;27;20019;-93
2021/09/09 05:39:55;;;;;;;16.48;7.40;;;;;;;;;;5120574;28;20110;-94
2021/09/09 05:42:21;;;;;;;22.77;7.60;;;;;;;;;;5139146;28;20404;-95
2021/09/09 05:44:47;;;;;;;18.50;7.10;;;;;;;;;;5120567;28;20019;-94
2021/09/09 05:47:13;;;;;;;13.18;6.78;;;;;;;;;;5139480;27;20316;-93
2021/09/09 05:49:39;;;;;;;19.83;7.45;;;;;;;;;;5122440;28;20072;-92
2021/09/09 05:52:06;;;;;;;15.35;7.43;;;;;;;;;;5139423;27;20019;-94
2021/09/09 05:54:32;;;;;;;20.85;10.48;;;;;;;;;;5139450;27;20047;-94
2021/09/09 05:56:59;;;;;;;14.43;7.03;;;;;;;;;;5122162;28;20068;-94
2021/09/09 05:59:25;;;;;;;9.18;6.18;;;;;;;;;;5122115;28;20031;-95
2021/09/09 06:01:51;;;;;;;21.92;6.57;;;;;;;;;;5140933;28;20043;-95
2021/09/09 06:04:21;;;;;;;14.18;6.82;;;;;;;;;;5121422;28;20064;-94
2021/09/09 06:06:47;;;;;;;11.00;6.25;;;;;;;;;;5121275;28;20499;-95
2021/09/09 06:09:14;;;;;;;12.45;6.43;;;;;;;;;;5121627;28;20027;-94
2021/09/09 06:11:40;;;;;;;10.18;5.07;;;;;;;;;;5139756;27;20397;-95
2021/09/09 06:14:07;;;;;;;11.75;5.93;;;;;;;;;;5121947;28;20026;-95
2021/09/09 06:16:33;;;;;;;11.32;5.43;;;;;;;;;;5141257;28;20047;-94
2021/09/09 06:18:59;;;;;;;16.20;6.78;;;;;;;;;;5138922;28;20114;-95
2021/09/09 06:21:26;;;;;;;17.92;7.40;;;;;;;;;;5120461;28;20031;-95
2021/09/09 06:23:52;;;;;;;41.17;26.45;;;;;;;;;;5120799;28;20027;-96
2021/09/09 06:26:18;;;;;;;15.93;9.55;;;;;;;;;;5144678;28;20027;-95
2021/09/09 06:28:45;;;;;;;14.82;9.43;;;;;;;;;;5146183;27;20055;-95
2021/09/09 06:31:11;;;;;;;11.63;8.05;;;;;;;;;;5147075;27;20027;-96
2021/09/09 06:33:38;;;;;;;68.60;44.88;;;;;;;;;;5146098;28;20015;-95
2021/09/09 06:36:04;;;;;;;18.92;12.38;;;;;;;;;;5147979;27;20372;-95
2021/09/09 06:38:30;;;;;;;18.55;12.15;;;;;;;;;;5149092;27;20037;-95
2021/09/09 06:40:56;;;;;;;15.32;7.60;;;;;;;;;;5130775;27;20072;-96
2021/09/09 06:43:22;;;;;;;17.60;6.50;;;;;;;;;;5147844;27;20019;-96
2021/09/09 06:45:49;;;;;;;20.63;13.23;;;;;;;;;;5129961;27;20027;-95
2021/09/09 06:48:15;;;;;;;13.57;8.07;;;;;;;;;;5130367;27;20023;-96
2021/09/09 06:50:41;;;;;;;15.55;9.02;;;;;;;;;;5130768;27;20051;-95
2021/09/09 06:53:07;;;;;;;20.90;14.02;;;;;;;;;;5132884;27;20024;-95
2021/09/09 06:55:33;;;;;;;24.08;14.98;;;;;;;;;;5131059;27;20027;-96
2021/09/09 06:57:59;;;;;;;21.55;12.88;;;;;;;;;;5151396;27;20035;-95
2021/09/09 07:00:26;;;;;;;18.25;11.32;;;;;;;;;;5134449;27;20019;-95
2021/09/09 07:02:52;;;;;;;18.33;10.30;;;;;;;;;;5152443;27;20026;-95
2021/09/09 07:05:18;;;;;;;20.55;13.50;;;;;;;;;;5163545;27;20147;-95
2021/09/09 07:07:44;;;;;;;11.45;6.85;;;;;;;;;;5170842;27;20026;-96
2021/09/09 07:10:11;;;;;;;19.75;12.18;;;;;;;;;;5171332;27;20027;-95
2021/09/09 07:12:42;;;;;;;21.77;11.75;;;;;;;;;;5170227;27;20030;-95
2021/09/09 07:15:08;;;;;;;9.45;4.30;;;;;;;;;;5153211;27;20015;-95
2021/09/09 07:17:36;;;;;;;8.02;3.47;;;;;;;;;;5172004;27;20019;-96
2021/09/09 07:20:02;;;;;;;15.18;7.18;;;;;;;;;;5172087;27;20031;-95
2021/09/09 07:22:28;;;;;;;12.23;4.35;;;;;;;;;;5169277;27;20027;-95
2021/09/09 07:24:54;;;;;;;17.92;3.55;;;;;;;;;;5137640;27;20042;-95
2021/09/09 07:27:21;;;;;;;10.90;3.97;;;;;;;;;;5156612;27;20027;-96
2021/09/09 07:29:47;;;;;;;15.95;4.22;;;;;;;;;;5147930;27;20047;-96
2021/09/09 07:32:13;;;;;;;8.18;3.55;;;;;;;;;;5166915;27;20055;-96
2021/09/09 07:34:39;;;;;;;17.92;3.13;;;;;;;;;;5169951;27;20023;-96
2021/09/09 07:37:05;;;;;;;7.25;2.80;;;;;;;;;;5168621;27;20023;-87
2021/09/09 07:39:31;;;;;;;9.82;2.95;;;;;;;;;;5146778;27;20114;-86
2021/09/09 07:41:57;;;;;;;18.05;3.75;;;;;;;;;;5146554;27;20091;-95
2021/09/09 07:44:24;;;;;;;10.98;2.95;;;;;;;;;;5147010;27;20018;-95
2021/09/09 07:46:50;;;;;;;12.98;3.13;;;;;;;;;;5146907;27;20063;-96
2021/09/09 07:49:16;;;;;;;16.55;3.10;;;;;;;;;;5165250;27;20023;-95
2021/09/09 07:51:43;;;;;;;13.35;2.72;;;;;;;;;;5162604;27;20207;-95
2021/09/09 07:54:09;;;;;;;9.27;3.05;;;;;;;;;;5162057;27;20098;-94
2021/09/09 07:56:38;;;;;;;13.55;2.90;;;;;;;;;;5144784;27;20042;-95
2021/09/09 07:59:04;;;;;;;7.70;2.70;;;;;;;;;;5143921;27;20058;-96
2021/09/09 08:01:30;;;;;;;10.50;3.00;;;;;;;;;;5162653;27;20105;-95
2021/09/09 08:03:56;;;;;;;11.88;2.30;;;;;;;;;;5162886;27;20027;-95
2021/09/09 08:06:22;;;;;;;9.98;2.60;;;;;;;;;;5162114;27;20026;-92
2021/09/09 08:08:48;;;;;;;10.60;2.92;;;;;;;;;;5145432;27;20031;-94
2021/09/09 08:11:15;;;;;;;15.82;2.90;;;;;;;;;;5145202;27;20030;-95
2021/09/09 11:35:23;;;;;;;5.03;2.70;;;;;;;;;;5115917;27;20434;-93
2021/09/09 11:37:49;;;;;;;8.73;2.58;;;;;;;;;;5114758;28;20028;-95
2021/09/09 11:40:18;;;;;;;5.65;2.63;;;;;;;;;;5114268;28;20119;-93
2021/09/09 11:42:44;;;;;;;15.82;2.95;;;;;;;;;;5114501;28;20041;-93
2021/09/09 11:45:10;;;;;;;10.77;3.13;;;;;;;;;;5114496;28;20425;-93
2021/09/09 11:47:36;;;;;;;7.28;2.40;;;;;;;;;;5115225;28;20031;-93
2021/09/09 11:50:06;;;;;;;8.52;2.15;;;;;;;;;;5114352;28;20024;-93
2021/09/09 11:52:34;;;;;;;9.63;2.55;;;;;;;;;;5115207;28;20374;-94
2021/09/09 11:55:09;;;;;;;10.52;2.40;;;;;;;;;;5115225;28;20321;-94
2021/09/09 11:57:40;;;;;;;4.90;2.35;;;;;;;;;;5115052;28;20024;-94
2021/09/09 12:00:06;;;;;;;8.25;2.38;;;;;;;;;;5115046;28;20417;-94
2021/09/09 12:02:33;;;;;;;6.47;2.38;;;;;;;;;;5114240;28;20027;-94
2021/09/09 12:05:02;;;;;;;6.20;2.40;;;;;;;;;;5113715;28;20035;-94
2021/09/09 12:07:29;;;;;;;6.47;2.17;;;;;;;;;;5113941;28;20036;-93
2021/09/09 12:10:02;;;;;;;4.75;2.08;;;;;;;;;;5115357;28;20024;-93
2021/09/09 12:12:30;;;;;;;8.60;2.33;;;;;;;;;;5114892;28;20036;-93
2021/09/09 12:15:16;;;;;;;9.38;3.10;;;;;;;;;;5114808;28;20058;-94
2021/09/09 12:17:42;;;;;;;5.97;2.45;;;;;;;;;;5113825;28;20032;-93
2021/09/09 12:20:10;;;;;;;6.68;2.20;;;;;;;;;;5114846;28;20077;-95
2021/09/09 12:22:57;;;;;;;6.60;2.40;;;;;;;;;;5113630;28;20016;-94
2021/09/09 12:25:29;;;;;;;7.35;2.60;;;;;;;;;;5113676;28;20035;-94
2021/09/09 12:28:01;;;;;;;9.95;2.70;;;;;;;;;;5114609;28;20026;-93
2021/09/09 12:30:30;;;;;;;9.68;3.55;;;;;;;;;;5113872;28;20436;-94
2021/09/09 12:32:56;;;;;;;10.07;2.85;;;;;;;;;;5113173;28;20020;-92
2021/09/09 12:35:23;;;;;;;8.35;4.15;;;;;;;;;;5113341;28;20028;-95
2021/09/09 12:38:02;;;;;;;10.65;2.95;;;;;;;;;;5114640;28;20028;-93
2021/09/09 12:40:38;;;;;;;8.60;4.30;;;;;;;;;;5113548;28;20321;-93
2021/09/09 12:43:43;;;;;;;8.23;4.70;;;;;;;;;;5113478;28;20016;-93
2021/09/09 12:46:25;;;;;;;12.07;5.05;;;;;;;;;;5061640;28;20063;-94
2021/09/09 12:48:51;;;;;;;;;;;;;;;;;;5042450;28;20068;-95
2021/09/09 12:51:20;;;;;;;12.98;7.00;;;;;;;;;;5058700;28;19905;-93
2021/09/09 12:53:46;;;;;;;6.97;3.40;;;;;;;;;;5058562;28;20112;-93
2021/09/09 12:56:12;;;;;;;8.75;4.70;;;;;;;;;;5058691;28;20048;-93
2021/09/09 12:58:38;;;;;;;11.60;6.13;;;;;;;;;;5041864;28;20033;-94
2021/09/09 13:01:04;;;;;;;10.95;4.35;;;;;;;;;;5058519;28;20017;-94
2021/09/09 13:03:31;;;;;;;10.93;3.75;;;;;;;;;;5058304;28;20045;-94
2021/09/09 13:05:59;;;;;;;12.35;4.15;;;;;;;;;;5041922;28;20032;-94
2021/09/09 13:08:25;;;;;;;8.68;3.42;;;;;;;;;;5041761;28;20025;-94
2021/09/09 13:10:51;;;;;;;8.38;3.70;;;;;;;;;;5041284;28;20072;-94
2021/09/09 13:13:17;;;;;;;9.52;2.92;;;;;;;;;;5058202;28;20070;-94
2021/09/09 13:15:44;;;;;;;8.48;3.88;;;;;;;;;;5059719;28;20025;-94
2021/09/09 13:18:12;;;;;;;7.32;2.92;;;;;;;;;;5099807;28;20047;-95
2021/09/09 13:20:39;;;;;;;9.55;4.95;;;;;;;;;;5099165;28;20024;-94
2021/09/09 13:23:05;;;;;;;10.63;3.30;;;;;;;;;;5099479;28;20020;-95
2021/09/09 13:25:32;;;;;;;6.47;4.40;;;;;;;;;;5098978;28;20021;-95
2021/09/09 13:27:58;;;;;;;11.73;6.25;;;;;;;;;;5098929;28;20421;-94
2021/09/09 13:30:25;;;;;;;9.95;3.85;;;;;;;;;;5099736;28;20037;-93
2021/09/09 13:32:51;;;;;;;8.70;3.92;;;;;;;;;;5099244;28;20024;-95
2021/09/09 13:35:17;;;;;;;11.40;4.82;;;;;;;;;;5099458;28;20092;-94
2021/09/09 13:37:43;;;;;;;7.15;3.95;;;;;;;;;;5099748;28;20291;-94
2021/09/09 13:40:10;;;;;;;7.57;2.70;;;;;;;;;;5099728;28;20052;-93
2021/09/09 13:42:36;;;;;;;12.20;3.72;;;;;;;;;;5098588;28;20027;-94
2021/09/09 13:45:02;;;;;;;11.30;3.08;;;;;;;;;;5099742;28;20032;-95
2021/09/09 13:47:28;;;;;;;12.23;4.30;;;;;;;;;;5099380;28;20540;-94
2021/09/09 13:49:55;;;;;;;7.18;2.58;;;;;;;;;;5099591;28;20036;-93
2021/09/09 13:52:21;;;;;;;10.75;3.08;;;;;;;;;;5099528;28;20066;-94
2021/09/09 13:54:47;;;;;;;10.68;5.60;;;;;;;;;;5099269;28;20026;-95
2021/09/09 13:57:13;;;;;;;12.98;2.88;;;;;;;;;;5098368;28;20410;-94
2021/09/09 13:59:43;;;;;;;7.40;3.10;;;;;;;;;;5099453;28;20106;-94
2021/09/09 14:02:09;;;;;;;4.68;2.97;;;;;;;;;;5098300;28;20039;-92
2021/09/09 14:04:35;;;;;;;22.58;6.22;;;;;;;;;;5098235;28;20299;-94
2021/09/09 14:07:01;;;;;;;36.22;19.52;;;;;;;;;;5098876;28;20047;-93
2021/09/09 14:09:27;;;;;;;15.38;5.43;;;;;;;;;;5098513;28;20410;-93
2021/09/09 14:11:53;;;;;;;11.77;5.72;;;;;;;;;;5099237;28;20028;-95
2021/09/09 14:14:22;;;;;;;15.35;8.25;;;;;;;;;;5098775;28;20119;-93
2021/09/09 14:16:48;;;;;;;12.90;5.88;;;;;;;;;;5099121;28;20017;-95
2021/09/09 14:19:14;;;;;;;11.80;4.22;;;;;;;;;;5098941;28;20346;-94
2021/09/09 14:21:40;;;;;;;11.93;4.43;;;;;;;;;;5097932;28;20024;-93
2021/09/09 14:24:07;;;;;;;9.40;4.35;;;;;;;;;;5098944;28;20098;-93
2021/09/09 14:26:33;;;;;;;14.23;6.10;;;;;;;;;;5097829;28;20341;-95
2021/09/09 14:29:00;;;;;;;10.80;5.55;;;;;;;;;;5097550;28;20027;-94
2021/09/09 14:31:30;;;;;;;10.00;5.03;;;;;;;;;;5098033;28;20039;-95
2021/09/09 14:33:57;;;;;;;9.63;5.83;;;;;;;;;;5097485;28;20064;-95
2021/09/09 14:36:23;;;;;;;11.23;4.97;;;;;;;;;;5098225;28;20023;-80
2021/09/09 14:38:49;;;;;;;10.55;5.38;;;;;;;;;;5097925;28;20017;-80
2021/09/09 14:41:15;;;;;;;11.43;5.50;;;;;;;;;;5097615;28;20074;-80
2021/09/09 14:43:41;;;;;;;15.55;7.68;;;;;;;;;;5096976;28;20123;-80
2021/09/09 14:46:07;;;;;;;13.57;7.93;;;;;;;;;;5098026;28;20044;-80
2021/09/09 14:48:33;;;;;;;16.33;7.55;;;;;;;;;;5097616;28;20035;-80
2021/09/09 14:50:59;;;;;;;13.10;6.68;;;;;;;;;;5097637;28;20070;-80
2021/09/09 14:53:26;;;;;;;11.60;4.68;;;;;;;;;;5097513;28;20020;-80
2021/09/09 14:55:54;;;;;;;12.25;3.85;;;;;;;;;;5097310;28;20402;-80
2021/09/09 14:58:20;;;;;;;9.90;5.65;;;;;;;;;;5097655;28;20575;-79
2021/09/09 15:00:46;;;;;;;12.63;5.07;;;;;;;;;;5096730;28;20326;-79
2021/09/09 15:03:12;;;;;;;12.85;5.47;;;;;;;;;;5097679;28;20052;-79
2021/09/09 15:05:38;;;;;;;10.10;3.28;;;;;;;;;;5097621;28;20024;-79
2021/09/09 15:08:05;;;;;;;12.45;5.55;;;;;;;;;;5097133;28;20354;-79
2021/09/09 15:10:31;;;;;;;18.50;7.53;;;;;;;;;;5097558;28;20405;-79
2021/09/09 15:12:57;;;;;;;11.20;5.00;;;;;;;;;;5096511;28;20066;-80
2021/09/09 15:15:23;;;;;;;16.52;5.00;;;;;;;;;;5097268;28;20394;-79
2021/09/09 15:17:49;;;;;;;13.80;6.28;;;;;;;;;;5096299;28;20047;-79
2021/09/09 15:20:16;;;;;;;22.45;6.20;;;;;;;;;;5097192;28;20069;-79
2021/09/09 15:22:42;;;;;;;15.13;6.85;;;;;;;;;;5097378;28;20016;-79
2021/09/09 15:25:09;;;;;;;17.38;7.57;;;;;;;;;;5097204;28;20416;-80
2021/09/09 15:27:37;;;;;;;24.75;10.73;;;;;;;;;;5097064;28;20107;-79
2021/09/09 15:30:03;;;;;;;15.70;10.50;;;;;;;;;;5097068;28;20027;-79
2021/09/09 15:32:29;;;;;;;19.00;10.73;;;;;;;;;;5096807;28;20444;-79
2021/09/09 15:34:55;;;;;;;23.52;10.63;;;;;;;;;;5096830;28;20444;-79
2021/09/09 15:37:21;;;;;;;15.00;8.65;;;;;;;;;;5097184;28;20398;-79
2021/09/09 15:39:47;;;;;;;15.88;4.07;;;;;;;;;;5096958;28;20353;-79
2021/09/09 15:42:13;;;;;;;12.00;5.20;;;;;;;;;;5097061;28;20023;-79
2021/09/09 15:44:42;;;;;;;8.63;5.60;;;;;;;;;;5095914;28;20028;-79
2021/09/09 15:47:10;;;;;;;9.00;4.03;;;;;;;;;;5097077;28;20035;-79
2021/09/09 15:49:36;;;;;;;11.70;6.32;;;;;;;;;;5097034;28;20031;-79
2021/09/09 15:52:02;;;;;;;21.48;13.73;;;;;;;;;;5096970;28;20031;-79
2021/09/09 15:54:29;;;;;;;11.57;5.57;;;;;;;;;;5096132;28;20028;-79
2021/09/09 15:56:57;;;;;;;17.20;6.82;;;;;;;;;;5095968;28;20044;-79
2021/09/09 15:59:23;;;;;;;14.55;4.68;;;;;;;;;;5096103;28;20036;-79
2021/09/09 16:01:49;;;;;;;22.27;4.93;;;;;;;;;;5097067;28;20020;-79
2021/09/09 16:04:15;;;;;;;18.73;5.15;;;;;;;;;;5096567;28;20032;-80
2021/09/09 16:06:41;;;;;;;9.20;3.47;;;;;;;;;;5096104;28;20032;-79
2021/09/09 16:09:08;;;;;;;13.23;4.40;;;;;;;;;;5096821;28;20044;-79
2021/09/09 16:11:35;;;;;;;14.48;4.32;;;;;;;;;;5096892;28;20410;-79
2021/09/09 16:14:02;;;;;;;9.68;3.78;;;;;;;;;;5095605;28;20031;-80
2021/09/09 16:16:28;;;;;;;11.52;3.53;;;;;;;;;;5096601;28;20023;-79
2021/09/09 16:18:54;;;;;;;9.15;3.00;;;;;;;;;;5096756;28;20232;-79
2021/09/09 16:21:22;;;;;;;12.00;3.58;;;;;;;;;;5098445;28;20073;-79
2021/09/09 16:23:49;;;;;;;11.15;3.85;;;;;;;;;;5099856;28;20064;-79
2021/09/09 16:26:15;;;;;;;4.88;2.35;;;;;;;;;;5100515;28;20042;-79
2021/09/09 16:28:41;;;;;;;8.57;2.60;;;;;;;;;;5099498;28;20028;-79
2021/09/09 16:31:07;;;;;;;11.98;2.58;;;;;;;;;;5100433;28;20402;-79
2021/09/09 16:33:33;;;;;;;7.65;2.90;;;;;;;;;;5099950;28;20430;-80
2021/09/09 16:35:59;;;;;;;8.07;3.58;;;;;;;;;;5100281;28;20012;-85
2021/09/09 16:38:26;;;;;;;14.70;2.60;;;;;;;;;;5100283;28;20020;-81
2021/09/09 16:40:52;;;;;;;12.60;3.92;;;;;;;;;;5100426;28;20031;-82
2021/09/09 16:43:18;;;;;;;9.98;2.60;;;;;;;;;;5099738;28;20062;-81
2021/09/09 16:45:44;;;;;;;8.55;2.55;;;;;;;;;;5100357;28;20047;-82
2021/09/09 16:48:10;;;;;;;7.93;2.33;;;;;;;;;;5100246;28;20016;-82
2021/09/09 16:50:36;;;;;;;13.70;3.90;;;;;;;;;;5100039;28;20021;-82
2021/09/09 16:53:03;;;;;;;5.55;2.47;;;;;;;;;;5100209;28;20061;-82
2021/09/09 16:55:29;;;;;;;9.43;2.53;;;;;;;;;;5100055;28;20401;-82
2021/09/09 16:57:56;;;;;;;11.52;2.88;;;;;;;;;;5099823;28;20023;-82
2021/09/09 17:00:23;;;;;;;9.73;2.60;;;;;;;;;;5099988;28;20298;-81
2021/09/09 17:02:53;;;;;;;10.52;3.17;;;;;;;;;;5098948;28;20032;-80
2021/09/09 17:05:22;;;;;;;10.13;3.20;;;;;;;;;;5098925;28;20032;-81
2021/09/09 17:07:50;;;;;;;8.82;2.67;;;;;;;;;;5099754;28;20496;-82
2021/09/09 17:10:17;;;;;;;22.35;3.97;;;;;;;;;;5098760;28;20127;-81
2021/09/09 17:12:44;;;;;;;9.98;2.50;;;;;;;;;;5099671;28;20031;-81
2021/09/09 17:15:11;;;;;;;21.77;3.00;;;;;;;;;;5099459;28;20409;-81
2021/09/09 17:17:37;;;;;;;25.83;11.02;;;;;;;;;;5099879;28;20474;-82
2021/09/09 17:20:04;;;;;;;13.98;5.32;;;;;;;;;;5098481;28;20115;-81
2021/09/09 17:22:30;;;;;;;15.85;3.95;;;;;;;;;;5098574;28;20046;-82
2021/09/09 17:24:58;;;;;;;9.15;3.00;;;;;;;;;;5099490;28;20024;-82
2021/09/09 17:27:24;;;;;;;10.25;3.00;;;;;;;;;;5099429;28;20041;-82
2021/09/09 17:29:50;;;;;;;7.55;2.25;;;;;;;;;;5099466;28;20032;-82
2021/09/09 17:32:16;;;;;;;11.80;3.10;;;;;;;;;;5099294;28;20028;-82
2021/09/09 17:34:42;;;;;;;7.15;2.63;;;;;;;;;;5098829;28;20083;-81
2021/09/09 17:37:09;;;;;;;14.65;3.20;;;;;;;;;;5098587;28;20357;-81
2021/09/09 17:39:35;;;;;;;14.90;3.08;;;;;;;;;;5099229;28;20024;-81
2021/09/09 17:42:01;;;;;;;8.48;2.85;;;;;;;;;;5099038;28;20291;-81
2021/09/09 17:44:27;;;;;;;8.88;2.60;;;;;;;;;;5098257;28;20032;-81
2021/09/09 17:46:53;;;;;;;17.15;3.05;;;;;;;;;;5098938;28;20031;-81
2021/09/09 17:49:19;;;;;;;12.82;3.72;;;;;;;;;;5098766;28;20032;-81
2021/09/09 17:51:45;;;;;;;13.63;3.10;;;;;;;;;;5098574;28;20119;-82